Time;durP1;ratioP1;P1;durP2;ratioP2;P2;SDS_P1;SDS_P2;PMS_P1;PMS_P2;Temp;Humidity;BMP_temperature;BMP_pressure;BME280_temperature;BME280_humidity;BME280_pressure;Samples;Min_cycle;Max_cycle;Signal;HPM_P1;HPM_P2
2023/05/20 00:00:06;;;;;;;5.28;2.40;;;9.30;99.90;;;;;;5088991;28;20483;-50
2023/05/20 00:02:32;;;;;;;3.22;2.22;;;9.30;99.90;;;;;;5106444;28;20034;-53
2023/05/20 00:04:58;;;;;;;4.60;2.67;;;9.30;99.90;;;;;;5092542;28;20028;-60
2023/05/20 00:07:23;;;;;;;6.78;3.00;;;9.30;99.90;;;;;;5108369;28;20036;-60
2023/05/20 00:09:49;;;;;;;5.00;3.15;;;9.20;99.90;;;;;;5090161;28;20032;-57
2023/05/20 00:12:14;;;;;;;4.05;2.70;;;9.30;99.90;;;;;;5107304;28;20366;-56
2023/05/20 00:14:40;;;;;;;5.45;2.78;;;9.30;99.90;;;;;;5110033;28;20039;-59
2023/05/20 00:17:05;;;;;;;5.20;2.92;;;9.20;99.90;;;;;;5093982;28;20031;-58
2023/05/20 00:19:31;;;;;;;4.38;2.95;;;9.20;99.90;;;;;;5109856;28;20031;-58
2023/05/20 00:21:57;;;;;;;5.47;2.63;;;9.20;99.90;;;;;;5092714;28;20498;-58
2023/05/20 00:24:23;;;;;;;4.57;3.00;;;9.20;99.90;;;;;;5108411;28;20166;-58
2023/05/20 00:26:49;;;;;;;8.07;2.72;;;9.20;99.90;;;;;;5091301;28;20049;-57
2023/05/20 00:29:14;;;;;;;7.90;3.42;;;9.20;99.90;;;;;;5109869;28;20099;-58
2023/05/20 00:31:40;;;;;;;4.75;3.30;;;9.10;99.90;;;;;;5089969;28;20109;-58
2023/05/20 00:34:06;;;;;;;6.63;3.03;;;9.20;99.90;;;;;;5109641;28;20108;-56
2023/05/20 00:36:32;;;;;;;5.10;2.85;;;9.10;99.90;;;;;;5088861;28;20111;-58
2023/05/20 00:38:57;;;;;;;5.20;2.33;;;9.10;99.90;;;;;;5109555;28;20020;-58
2023/05/20 00:41:23;;;;;;;5.97;2.97;;;9.10;99.90;;;;;;5089774;28;20035;-58
2023/05/20 00:43:53;;;;;;;5.68;3.17;;;9.10;99.90;;;;;;5107620;28;20027;-58
2023/05/20 00:46:19;;;;;;;7.93;3.53;;;9.10;99.90;;;;;;5088944;28;20031;-58
2023/05/20 00:48:44;;;;;;;7.05;3.45;;;9.10;99.90;;;;;;5087464;28;20032;-58
2023/05/20 00:51:13;;;;;;;4.38;3.28;;;9.10;99.90;;;;;;5108755;28;20038;-58
2023/05/20 00:53:40;;;;;;;5.63;3.20;;;9.10;99.90;;;;;;5087538;28;20031;-56
2023/05/20 00:56:07;;;;;;;5.43;3.38;;;9.10;99.90;;;;;;5108772;28;20043;-58
2023/05/20 00:58:35;;;;;;;3.35;2.45;;;9.00;99.90;;;;;;5086313;28;20401;-58
2023/05/20 01:01:01;;;;;;;4.78;3.22;;;9.10;99.90;;;;;;5109034;28;20192;-57
2023/05/20 01:03:28;;;;;;;5.35;3.35;;;9.00;99.90;;;;;;5087616;28;20274;-56
2023/05/20 01:05:53;;;;;;;5.70;3.20;;;9.00;99.90;;;;;;5104301;28;20032;-57
2023/05/20 01:08:20;;;;;;;4.90;2.83;;;9.10;99.90;;;;;;5087439;28;20404;-58
2023/05/20 01:10:50;;;;;;;5.50;4.00;;;9.00;99.90;;;;;;5108668;28;20172;-58
2023/05/20 01:13:20;;;;;;;6.05;3.00;;;9.00;99.90;;;;;;5082392;28;20050;-57
2023/05/20 01:15:48;;;;;;;4.57;2.72;;;9.00;99.90;;;;;;5068786;28;20024;-55
2023/05/20 01:18:17;;;;;;;7.20;3.05;;;9.00;99.90;;;;;;5091369;28;20635;-58
2023/05/20 01:20:45;;;;;;;5.38;3.70;;;9.10;99.90;;;;;;5108807;28;20020;-57
2023/05/20 01:23:10;;;;;;;4.63;3.47;;;9.00;99.90;;;;;;5087206;28;20548;-56
2023/05/20 01:25:36;;;;;;;4.35;3.42;;;9.00;99.90;;;;;;5102692;28;20048;-58
2023/05/20 01:28:01;;;;;;;6.43;3.70;;;9.00;99.90;;;;;;5100433;28;20036;-58
2023/05/20 01:30:40;;;;;;;5.30;2.45;;;9.00;99.90;;;;;;5088857;28;20393;-57
2023/05/20 01:33:10;;;;;;;5.60;3.50;;;9.00;99.90;;;;;;5079589;28;20032;-58
2023/05/20 01:35:38;;;;;;;4.20;2.47;;;9.00;99.90;;;;;;5068422;28;20115;-57
2023/05/20 01:38:04;;;;;;;5.72;3.50;;;9.00;99.90;;;;;;5092614;28;20032;-59
2023/05/20 01:40:31;;;;;;;5.35;2.92;;;9.10;99.90;;;;;;5108326;28;20032;-57
2023/05/20 01:42:58;;;;;;;5.75;2.47;;;9.10;99.90;;;;;;5085874;28;20032;-58
2023/05/20 01:45:24;;;;;;;4.75;3.00;;;9.10;99.90;;;;;;5108331;28;20119;-59
2023/05/20 01:47:50;;;;;;;5.50;3.40;;;9.20;99.90;;;;;;5087198;28;20111;-58
2023/05/20 01:50:15;;;;;;;6.43;3.42;;;9.30;99.90;;;;;;5111031;28;20111;-57
2023/05/20 01:52:41;;;;;;;5.72;3.08;;;9.30;99.90;;;;;;5101890;28;20120;-57
2023/05/20 01:55:07;;;;;;;4.78;3.20;;;9.30;99.90;;;;;;5092903;28;20028;-58
2023/05/20 01:57:32;;;;;;;7.80;3.25;;;9.40;99.90;;;;;;5108712;28;20399;-57
2023/05/20 01:59:58;;;;;;;4.38;2.95;;;9.40;99.90;;;;;;5092856;28;20032;-58
2023/05/20 02:02:23;;;;;;;5.35;3.17;;;9.50;99.90;;;;;;5109884;28;20084;-59
2023/05/20 02:04:50;;;;;;;8.20;3.53;;;9.50;99.90;;;;;;5093730;28;20024;-58
2023/05/20 02:07:17;;;;;;;7.97;3.40;;;9.50;99.90;;;;;;5110563;27;20027;-57
2023/05/20 02:09:43;;;;;;;5.03;3.15;;;9.60;99.90;;;;;;5112593;28;20030;-58
2023/05/20 02:12:15;;;;;;;5.82;3.22;;;9.60;99.90;;;;;;5096906;28;20040;-57
2023/05/20 02:14:40;;;;;;;7.32;3.78;;;9.60;99.90;;;;;;5112426;28;20040;-57
2023/05/20 02:17:06;;;;;;;7.13;3.30;;;9.60;99.90;;;;;;5096372;28;20081;-58
2023/05/20 02:19:31;;;;;;;6.78;3.30;;;9.70;99.90;;;;;;5112200;28;20031;-58
2023/05/20 02:21:57;;;;;;;4.15;3.05;;;9.70;99.90;;;;;;5095008;28;20043;-57
2023/05/20 02:24:22;;;;;;;4.55;3.10;;;9.80;99.90;;;;;;5111963;28;20103;-58
2023/05/20 02:26:50;;;;;;;4.78;3.10;;;9.70;99.90;;;;;;5093591;28;20130;-57
2023/05/20 02:29:15;;;;;;;9.82;3.50;;;9.80;99.90;;;;;;5112243;28;20478;-58
2023/05/20 02:31:41;;;;;;;5.97;2.70;;;9.80;99.90;;;;;;5092453;27;20109;-57
2023/05/20 02:34:06;;;;;;;8.45;3.33;;;9.80;99.90;;;;;;5112169;28;20012;-58
2023/05/20 02:36:32;;;;;;;8.50;3.83;;;9.90;99.90;;;;;;5091207;28;20089;-57
2023/05/20 02:38:59;;;;;;;7.50;4.20;;;9.90;99.90;;;;;;5112089;28;20024;-58
2023/05/20 02:41:25;;;;;;;6.68;3.15;;;9.90;99.90;;;;;;5089854;28;20073;-58
2023/05/20 02:43:50;;;;;;;6.85;3.60;;;9.90;99.90;;;;;;5111676;28;20032;-57
2023/05/20 02:46:18;;;;;;;5.15;3.80;;;9.90;99.90;;;;;;5073599;28;20073;-58
2023/05/20 02:48:44;;;;;;;7.15;3.28;;;9.90;99.90;;;;;;5089821;28;20084;-59
2023/05/20 02:51:10;;;;;;;9.55;4.15;;;9.90;99.90;;;;;;5110674;28;20126;-57
2023/05/20 02:53:35;;;;;;;7.70;4.13;;;9.90;99.90;;;;;;5089719;28;20024;-57
2023/05/20 02:56:03;;;;;;;5.70;3.75;;;9.90;99.90;;;;;;5110799;28;20036;-57
2023/05/20 02:58:29;;;;;;;6.57;3.15;;;9.90;99.90;;;;;;5089782;28;20020;-58
2023/05/20 03:00:56;;;;;;;5.20;3.08;;;9.90;99.90;;;;;;5109182;28;20050;-58
2023/05/20 03:03:22;;;;;;;6.18;3.70;;;10.00;99.90;;;;;;5089411;28;20024;-58
2023/05/20 03:05:48;;;;;;;5.50;4.18;;;10.00;99.90;;;;;;5108145;28;20124;-58
2023/05/20 03:08:14;;;;;;;14.35;3.85;;;9.90;99.90;;;;;;5089611;28;20383;-58
2023/05/20 03:10:40;;;;;;;5.03;3.50;;;10.00;99.90;;;;;;5110284;28;20024;-57
2023/05/20 03:13:07;;;;;;;7.15;3.78;;;10.00;99.90;;;;;;5089576;28;20085;-58
2023/05/20 03:15:37;;;;;;;5.57;3.67;;;10.00;99.90;;;;;;5110666;28;20027;-57
2023/05/20 03:18:03;;;;;;;7.78;3.55;;;10.00;99.90;;;;;;5088957;28;20024;-57
2023/05/20 03:20:29;;;;;;;10.13;4.30;;;10.00;99.90;;;;;;5110477;28;20016;-60
2023/05/20 03:22:55;;;;;;;5.70;3.30;;;10.10;99.90;;;;;;5089377;28;20044;-58
2023/05/20 03:25:21;;;;;;;6.35;3.47;;;10.10;99.90;;;;;;5107164;28;20515;-58
2023/05/20 03:27:47;;;;;;;6.57;3.40;;;10.10;99.90;;;;;;5103064;28;20032;-56
2023/05/20 03:30:13;;;;;;;8.00;3.45;;;10.10;99.90;;;;;;5091044;28;20036;-56
2023/05/20 03:32:38;;;;;;;7.88;3.40;;;10.10;99.90;;;;;;5095497;28;20020;-57
2023/05/20 03:35:05;;;;;;;10.82;3.80;;;10.20;99.90;;;;;;5110171;28;20039;-59
2023/05/20 03:37:30;;;;;;;4.93;3.85;;;10.20;99.90;;;;;;5089156;28;20036;-57
2023/05/20 03:39:56;;;;;;;7.32;3.83;;;10.20;99.90;;;;;;5110189;28;20035;-59
2023/05/20 03:42:21;;;;;;;6.93;3.92;;;10.20;99.90;;;;;;5099720;28;20379;-58
2023/05/20 03:44:47;;;;;;;5.43;3.35;;;10.20;99.90;;;;;;5091011;28;20424;-59
2023/05/20 03:47:12;;;;;;;6.55;3.17;;;10.30;99.90;;;;;;5097716;28;20509;-56
2023/05/20 03:49:39;;;;;;;8.10;3.92;;;10.30;99.90;;;;;;5090808;28;20150;-55
2023/05/20 03:52:05;;;;;;;7.10;3.85;;;10.30;99.90;;;;;;5108062;28;20038;-57
2023/05/20 03:54:31;;;;;;;6.82;3.75;;;10.30;99.90;;;;;;5090787;28;20117;-58
2023/05/20 03:56:56;;;;;;;7.10;3.72;;;10.40;99.90;;;;;;5107771;28;20082;-58
2023/05/20 03:59:22;;;;;;;8.55;4.30;;;10.40;99.90;;;;;;5110384;28;20059;-57
2023/05/20 04:01:48;;;;;;;6.75;3.58;;;10.40;99.90;;;;;;5094627;28;20031;-58
2023/05/20 04:04:13;;;;;;;8.27;3.35;;;10.30;99.90;;;;;;5108927;28;20605;-58
2023/05/20 04:06:39;;;;;;;4.82;3.50;;;10.40;99.90;;;;;;5088089;28;20035;-57
2023/05/20 04:09:05;;;;;;;4.82;3.22;;;10.40;99.90;;;;;;5110417;28;20023;-55
2023/05/20 04:11:30;;;;;;;5.63;3.08;;;10.40;99.90;;;;;;5091293;28;20074;-59
2023/05/20 04:13:57;;;;;;;4.63;3.22;;;10.50;99.90;;;;;;5110183;28;20084;-56
2023/05/20 04:16:23;;;;;;;6.32;3.20;;;10.50;99.90;;;;;;5090851;28;20016;-57
2023/05/20 04:18:49;;;;;;;9.48;4.05;;;10.60;99.90;;;;;;5110333;28;20100;-56
2023/05/20 04:21:15;;;;;;;7.82;4.15;;;10.50;99.90;;;;;;5089499;28;20052;-58
2023/05/20 04:23:40;;;;;;;9.23;3.90;;;10.60;99.90;;;;;;5110050;28;20043;-58
2023/05/20 04:26:06;;;;;;;5.47;3.50;;;10.60;99.90;;;;;;5097381;28;20063;-56
2023/05/20 04:28:32;;;;;;;6.82;2.80;;;10.60;99.90;;;;;;5108583;28;20016;-57
2023/05/20 04:31:03;;;;;;;5.85;4.00;;;10.60;99.90;;;;;;5089828;28;20373;-58
2023/05/20 04:33:29;;;;;;;6.75;3.80;;;10.60;99.90;;;;;;5088032;28;20023;-58
2023/05/20 04:35:57;;;;;;;5.95;3.70;;;10.60;99.90;;;;;;5109082;28;20032;-58
2023/05/20 04:38:28;;;;;;;10.70;3.97;;;10.70;99.90;;;;;;5086466;28;20565;-59
2023/05/20 04:40:56;;;;;;;11.63;4.25;;;10.60;99.90;;;;;;5069290;28;20400;-59
2023/05/20 04:43:23;;;;;;;5.57;3.80;;;10.60;99.90;;;;;;5088114;28;20420;-56
2023/05/20 04:45:48;;;;;;;8.13;4.43;;;10.70;99.90;;;;;;5109185;28;20020;-57
2023/05/20 04:48:14;;;;;;;6.68;3.85;;;10.70;99.90;;;;;;5087972;28;20031;-58
2023/05/20 04:50:40;;;;;;;6.53;3.60;;;10.70;99.90;;;;;;5108725;28;20039;-57
2023/05/20 04:53:06;;;;;;;6.43;3.97;;;10.70;99.90;;;;;;5088047;28;20035;-57
2023/05/20 04:55:32;;;;;;;9.05;4.00;;;10.70;99.90;;;;;;5108937;28;20051;-58
2023/05/20 04:57:57;;;;;;;6.43;3.97;;;10.70;99.90;;;;;;5087949;28;20105;-59
2023/05/20 05:00:23;;;;;;;8.27;5.10;;;10.70;99.90;;;;;;5108672;28;20076;-56
2023/05/20 05:02:49;;;;;;;6.82;4.28;;;10.70;99.90;;;;;;5087860;28;20032;-59
2023/05/20 05:05:15;;;;;;;7.20;3.92;;;10.70;99.90;;;;;;5095141;28;20024;-58
2023/05/20 05:07:40;;;;;;;8.50;4.03;;;10.80;99.90;;;;;;5099934;28;20475;-59
2023/05/20 05:10:06;;;;;;;5.10;3.40;;;10.80;99.90;;;;;;5084575;28;20039;-59
2023/05/20 05:12:32;;;;;;;13.52;4.20;;;10.80;99.90;;;;;;5088881;28;20706;-58
2023/05/20 05:14:58;;;;;;;7.05;4.38;;;10.90;99.90;;;;;;5068651;28;20021;-56
2023/05/20 05:17:23;;;;;;;9.02;3.83;;;10.90;99.90;;;;;;5106116;28;20023;-58
2023/05/20 05:19:49;;;;;;;7.22;4.60;;;10.90;99.90;;;;;;5109363;28;20023;-57
2023/05/20 05:22:15;;;;;;;7.13;3.88;;;11.00;99.90;;;;;;5087475;28;20028;-58
2023/05/20 05:24:40;;;;;;;8.30;3.92;;;11.00;99.90;;;;;;5109917;28;20080;-58
2023/05/20 05:27:06;;;;;;;7.47;4.55;;;11.00;99.90;;;;;;5093370;28;20048;-57
2023/05/20 05:29:31;;;;;;;9.63;4.50;;;11.00;99.90;;;;;;5091562;28;20032;-58
2023/05/20 05:31:57;;;;;;;6.82;4.10;;;11.10;99.90;;;;;;5112735;28;20472;-59
2023/05/20 05:34:22;;;;;;;8.90;4.88;;;11.00;99.90;;;;;;5091857;28;20035;-58
2023/05/20 05:36:48;;;;;;;7.00;4.00;;;11.00;99.90;;;;;;5111189;28;20024;-57
2023/05/20 05:39:13;;;;;;;6.45;4.05;;;11.10;99.90;;;;;;5091465;28;20346;-58
2023/05/20 05:41:39;;;;;;;8.13;4.65;;;11.10;99.90;;;;;;5111973;28;20441;-58
2023/05/20 05:44:04;;;;;;;8.38;4.00;;;11.10;99.90;;;;;;5091655;28;20437;-59
2023/05/20 05:46:30;;;;;;;7.00;3.80;;;11.10;99.90;;;;;;5112583;28;20059;-59
2023/05/20 05:48:57;;;;;;;7.70;4.25;;;11.10;99.90;;;;;;5091251;28;20027;-59
2023/05/20 05:51:24;;;;;;;11.48;4.85;;;11.20;99.90;;;;;;5112382;28;20032;-58
2023/05/20 05:53:49;;;;;;;11.35;4.68;;;11.20;99.90;;;;;;5091160;28;20456;-58
2023/05/20 05:56:15;;;;;;;6.93;4.40;;;11.20;99.90;;;;;;5112415;28;20118;-58
2023/05/20 05:58:41;;;;;;;7.53;4.45;;;11.30;99.90;;;;;;5090907;28;20067;-58
2023/05/20 06:01:06;;;;;;;9.43;4.10;;;11.30;99.90;;;;;;5112082;28;20126;-58
2023/05/20 06:03:32;;;;;;;11.40;4.43;;;11.40;99.90;;;;;;5100447;28;20111;-57
2023/05/20 06:05:57;;;;;;;9.32;4.60;;;11.40;99.90;;;;;;5090094;28;20027;-57
2023/05/20 06:08:23;;;;;;;7.05;4.63;;;11.50;99.90;;;;;;5109838;28;20031;-57
2023/05/20 06:10:49;;;;;;;6.53;4.07;;;11.50;99.90;;;;;;5092652;28;20517;-60
2023/05/20 06:13:15;;;;;;;7.43;4.40;;;11.60;99.90;;;;;;5110070;28;20550;-51
2023/05/20 06:15:40;;;;;;;7.40;4.25;;;11.60;99.90;;;;;;5092611;28;20173;-49
2023/05/20 06:18:06;;;;;;;7.40;4.15;;;11.60;99.90;;;;;;5109869;28;20032;-51
2023/05/20 06:20:31;;;;;;;9.30;4.45;;;11.60;99.90;;;;;;5112471;28;20027;-52
2023/05/20 06:22:57;;;;;;;5.80;3.60;;;11.70;99.90;;;;;;5096726;28;20464;-53
2023/05/20 06:25:22;;;;;;;8.75;4.53;;;11.70;99.90;;;;;;5108760;28;20034;-49
2023/05/20 06:27:48;;;;;;;8.15;4.07;;;11.70;99.90;;;;;;5095112;28;20333;-51
2023/05/20 06:30:14;;;;;;;6.22;4.72;;;11.70;99.90;;;;;;5112324;28;20028;-51
2023/05/20 06:32:40;;;;;;;8.77;5.28;;;11.80;99.90;;;;;;5094167;28;20051;-49
2023/05/20 06:35:06;;;;;;;6.35;4.70;;;11.90;99.90;;;;;;5087299;28;20419;-49
2023/05/20 06:37:31;;;;;;;7.13;4.05;;;11.90;99.90;;;;;;5077544;28;20036;-48
2023/05/20 06:39:57;;;;;;;6.88;3.95;;;12.00;99.90;;;;;;5090180;28;20028;-54
2023/05/20 06:42:22;;;;;;;6.40;4.22;;;12.20;99.90;;;;;;5079592;28;20115;-51
2023/05/20 06:44:48;;;;;;;7.60;4.57;;;12.30;99.90;;;;;;5107561;28;20127;-51
2023/05/20 06:47:15;;;;;;;10.77;5.03;;;12.30;99.90;;;;;;5095704;28;20031;-51
2023/05/20 06:49:42;;;;;;;9.07;5.57;;;12.20;99.90;;;;;;5104076;28;20484;-51
2023/05/20 06:52:07;;;;;;;11.73;6.03;;;12.20;99.90;;;;;;5106840;28;20571;-52
2023/05/20 06:54:38;;;;;;;10.10;4.80;;;12.10;99.90;;;;;;5071848;28;20082;-50
2023/05/20 06:57:05;;;;;;;10.25;4.75;;;12.10;99.90;;;;;;5090396;28;20050;-53
2023/05/20 06:59:31;;;;;;;9.73;4.53;;;12.20;99.90;;;;;;5089247;28;20035;-50
2023/05/20 07:01:56;;;;;;;10.90;4.85;;;12.40;99.90;;;;;;5104991;28;20024;-51
2023/05/20 07:04:22;;;;;;;9.63;5.65;;;12.50;99.90;;;;;;5089103;28;20024;-52
2023/05/20 07:06:47;;;;;;;7.00;4.60;;;12.60;99.90;;;;;;5079073;28;20036;-49
2023/05/20 07:09:13;;;;;;;8.63;5.72;;;12.70;99.90;;;;;;5081048;28;20078;-50
2023/05/20 07:11:38;;;;;;;5.97;3.90;;;12.70;99.90;;;;;;5098775;28;20039;-51
2023/05/20 07:14:04;;;;;;;8.77;5.45;;;12.80;99.90;;;;;;5109844;28;20391;-48
2023/05/20 07:16:31;;;;;;;11.23;4.95;;;12.80;99.90;;;;;;5080785;28;20085;-54
2023/05/20 07:18:57;;;;;;;8.35;4.90;;;12.70;99.90;;;;;;5109739;28;20016;-53
2023/05/20 07:21:22;;;;;;;9.32;5.60;;;12.80;99.90;;;;;;5087787;28;20031;-50
2023/05/20 07:23:48;;;;;;;7.78;5.13;;;12.80;99.90;;;;;;5090604;28;20074;-49
2023/05/20 07:26:14;;;;;;;9.25;4.95;;;12.90;99.90;;;;;;5097847;28;20044;-52
2023/05/20 07:28:39;;;;;;;5.93;4.40;;;13.10;99.90;;;;;;5112568;28;20088;-50
2023/05/20 07:31:07;;;;;;;7.57;4.70;;;13.20;99.90;;;;;;5091164;28;20063;-49
2023/05/20 07:33:32;;;;;;;5.80;4.03;;;13.40;99.90;;;;;;5111857;28;20027;-53
2023/05/20 07:35:58;;;;;;;9.75;4.50;;;13.50;99.90;;;;;;5090655;28;20064;-53
2023/05/20 07:38:23;;;;;;;8.23;4.57;;;13.60;99.20;;;;;;5112442;28;20062;-54
2023/05/20 07:40:49;;;;;;;7.40;4.93;;;13.70;98.70;;;;;;5092674;28;20112;-51
2023/05/20 07:43:16;;;;;;;7.07;4.72;;;13.70;96.80;;;;;;5089072;28;20476;-46
2023/05/20 07:45:42;;;;;;;7.05;4.57;;;13.80;97.60;;;;;;5110986;28;20042;-49
2023/05/20 07:48:07;;;;;;;7.75;4.97;;;13.90;96.50;;;;;;5087677;28;20028;-50
2023/05/20 07:50:33;;;;;;;9.75;5.22;;;14.00;95.90;;;;;;5110776;28;20063;-50
2023/05/20 07:52:59;;;;;;;8.43;4.68;;;14.00;95.70;;;;;;5084799;28;20043;-52
2023/05/20 07:55:25;;;;;;;10.35;4.72;;;14.10;95.30;;;;;;5090893;28;20031;-52
2023/05/20 07:57:51;;;;;;;7.40;5.20;;;14.30;94.00;;;;;;5107557;28;20438;-53
2023/05/20 08:00:17;;;;;;;9.05;4.75;;;14.40;92.70;;;;;;5111162;28;20462;-50
2023/05/20 08:02:43;;;;;;;6.43;4.20;;;14.50;92.70;;;;;;5094778;28;20107;-49
2023/05/20 08:05:08;;;;;;;6.65;3.92;;;14.80;91.50;;;;;;5103996;28;20119;-49
2023/05/20 08:07:34;;;;;;;6.75;5.15;;;15.10;90.80;;;;;;5093165;28;20047;-52
2023/05/20 08:10:00;;;;;;;7.32;4.88;;;15.00;88.10;;;;;;5109640;28;20433;-49
2023/05/20 08:12:26;;;;;;;9.00;4.50;;;15.20;88.30;;;;;;5092281;28;20032;-53
2023/05/20 08:14:53;;;;;;;8.80;5.10;;;15.40;85.40;;;;;;5110949;28;20055;-49
2023/05/20 08:17:18;;;;;;;7.30;4.60;;;15.50;82.90;;;;;;5090434;28;20360;-50
2023/05/20 08:19:44;;;;;;;7.82;4.63;;;15.60;83.30;;;;;;5109560;28;20123;-51
2023/05/20 08:22:09;;;;;;;11.85;5.53;;;15.60;82.50;;;;;;5089794;28;20036;-52
2023/05/20 08:24:37;;;;;;;7.80;4.75;;;15.60;79.30;;;;;;5110843;28;20495;-53
2023/05/20 08:27:03;;;;;;;7.55;4.70;;;15.60;79.60;;;;;;5089096;28;20302;-49
2023/05/20 08:29:29;;;;;;;8.48;5.13;;;15.50;78.80;;;;;;5108682;28;20062;-53
2023/05/20 08:31:56;;;;;;;7.28;5.22;;;15.40;80.20;;;;;;5090579;28;20063;-50
2023/05/20 08:34:22;;;;;;;7.78;4.35;;;15.30;81.70;;;;;;5088679;28;20051;-52
2023/05/20 08:36:47;;;;;;;5.15;4.05;;;15.30;81.80;;;;;;5109511;28;20061;-49
2023/05/20 08:39:14;;;;;;;6.32;3.95;;;15.30;82.70;;;;;;5088779;28;20058;-53
2023/05/20 08:41:39;;;;;;;6.72;4.50;;;15.40;82.30;;;;;;5109395;28;20027;-52
2023/05/20 08:44:08;;;;;;;7.78;5.10;;;15.30;82.10;;;;;;5088592;28;20051;-52
2023/05/20 08:46:36;;;;;;;8.27;5.32;;;15.30;81.90;;;;;;5109792;28;20023;-52
2023/05/20 08:49:02;;;;;;;7.22;5.13;;;15.50;81.80;;;;;;5088184;28;20028;-51
2023/05/20 08:51:30;;;;;;;6.25;4.28;;;15.60;81.00;;;;;;5109214;28;20032;-51
2023/05/20 08:53:59;;;;;;;8.65;5.70;;;15.80;80.00;;;;;;5088205;28;20436;-49
2023/05/20 08:56:27;;;;;;;7.72;5.03;;;15.70;79.40;;;;;;5109806;28;20423;-48
2023/05/20 08:58:52;;;;;;;7.20;4.70;;;15.80;79.40;;;;;;5087809;28;20024;-52
2023/05/20 09:01:22;;;;;;;10.25;5.30;;;16.00;78.40;;;;;;5109417;28;20030;-51
2023/05/20 09:03:49;;;;;;;11.65;5.03;;;16.20;77.80;;;;;;5087600;28;20116;-51
2023/05/20 09:06:20;;;;;;;7.90;4.60;;;16.40;75.90;;;;;;5107584;28;20031;-53
2023/05/20 09:08:52;;;;;;;10.38;6.03;;;16.40;73.80;;;;;;5081614;28;20597;-51
2023/05/20 09:11:20;;;;;;;7.75;5.70;;;16.10;74.50;;;;;;5069237;28;20110;-52
2023/05/20 09:13:49;;;;;;;11.50;5.55;;;15.90;77.30;;;;;;5093166;28;20067;-51
2023/05/20 09:16:16;;;;;;;8.80;5.45;;;15.90;78.20;;;;;;5109414;28;20501;-51
2023/05/20 09:18:42;;;;;;;9.52;5.72;;;16.00;78.20;;;;;;5087534;28;20099;-53
2023/05/20 09:21:09;;;;;;;14.00;7.70;;;16.00;78.40;;;;;;5108789;28;20112;-49
2023/05/20 09:23:38;;;;;;;9.50;7.80;;;15.80;77.60;;;;;;5087916;28;20044;-51
2023/05/20 09:26:03;;;;;;;11.73;7.60;;;15.70;77.10;;;;;;5099602;28;20051;-54
2023/05/20 09:28:29;;;;;;;11.60;6.45;;;15.50;79.10;;;;;;5095374;28;20028;-50
2023/05/20 09:31:00;;;;;;;9.95;6.93;;;15.50;80.30;;;;;;5107540;28;20028;-51
2023/05/20 09:33:28;;;;;;;8.43;5.93;;;15.70;80.50;;;;;;5087900;28;20024;-54
2023/05/20 09:36:02;;;;;;;10.57;7.13;;;15.70;80.20;;;;;;5107700;28;20023;-47
2023/05/20 09:38:34;;;;;;;13.65;7.32;;;15.70;79.50;;;;;;5090271;28;20030;-49
2023/05/20 09:41:06;;;;;;;7.95;6.15;;;15.90;79.20;;;;;;5069071;28;20040;-51
2023/05/20 09:43:33;;;;;;;9.07;7.00;;;16.00;77.50;;;;;;5079231;28;20070;-53
2023/05/20 09:45:59;;;;;;;10.10;7.00;;;16.10;76.60;;;;;;5107403;28;20028;-48
2023/05/20 09:48:26;;;;;;;10.60;7.68;;;16.00;76.70;;;;;;5098758;28;20110;-50
2023/05/20 09:50:53;;;;;;;14.23;7.18;;;15.80;77.40;;;;;;5089604;28;20059;-51
2023/05/20 09:53:21;;;;;;;11.30;6.55;;;15.80;76.20;;;;;;5107032;28;20518;-51
2023/05/20 09:55:49;;;;;;;13.38;7.05;;;15.80;77.70;;;;;;5089372;28;20035;-52
2023/05/20 09:58:19;;;;;;;11.10;7.35;;;15.60;77.80;;;;;;5107252;28;20093;-50
2023/05/20 10:00:45;;;;;;;7.28;5.97;;;15.70;78.40;;;;;;5089091;28;20085;-51
2023/05/20 10:03:11;;;;;;;8.20;6.05;;;16.20;76.00;;;;;;5105324;28;20062;-52
2023/05/20 10:05:44;;;;;;;10.35;6.43;;;16.60;72.50;;;;;;5099621;28;20043;-52
2023/05/20 10:08:36;;;;;;;14.77;7.75;;;16.70;70.10;;;;;;5084951;28;20071;-49
2023/05/20 10:11:35;;;;;;;8.82;6.90;;;16.80;69.00;;;;;;5071139;28;20297;-51
2023/05/20 10:14:39;;;;;;;12.65;7.78;;;16.80;68.80;;;;;;5082137;28;20056;-53
2023/05/20 10:17:26;;;;;;;10.57;7.57;;;16.80;68.90;;;;;;5071046;28;20028;-48
2023/05/20 10:19:58;;;;;;;13.40;7.88;;;16.80;67.80;;;;;;5072288;28;20036;-52
2023/05/20 10:22:29;;;;;;;12.82;8.38;;;16.60;69.20;;;;;;5075553;28;20024;-54
2023/05/20 10:25:07;;;;;;;12.55;7.22;;;16.50;70.40;;;;;;5112922;27;20031;-50
2023/05/20 10:27:47;;;;;;;10.45;7.53;;;16.50;72.20;;;;;;5093511;28;20032;-51
2023/05/20 10:30:18;;;;;;;11.30;7.20;;;16.80;70.10;;;;;;5071483;28;20502;-54
2023/05/20 10:33:03;;;;;;;8.77;6.25;;;16.90;69.60;;;;;;5097685;28;20039;-48
2023/05/20 10:35:29;;;;;;;11.07;7.72;;;17.10;68.50;;;;;;5071222;28;20068;-48
2023/05/20 10:38:09;;;;;;;12.77;7.55;;;17.10;67.50;;;;;;5095264;28;20081;-53
2023/05/20 10:40:37;;;;;;;15.25;8.20;;;17.10;68.30;;;;;;5072388;28;20388;-51
2023/05/20 10:43:13;;;;;;;15.05;9.65;;;17.00;67.80;;;;;;5103874;28;20082;-50
2023/05/20 10:45:54;;;;;;;13.52;9.38;;;16.90;68.30;;;;;;5072588;28;20028;-49
2023/05/20 10:48:24;;;;;;;13.88;8.30;;;17.00;68.30;;;;;;5096739;28;20039;-50
2023/05/20 10:50:52;;;;;;;15.05;8.75;;;17.10;68.80;;;;;;5072117;28;20033;-50
2023/05/20 10:53:22;;;;;;;13.55;8.68;;;17.10;67.30;;;;;;5096743;28;20028;-50
2023/05/20 10:55:51;;;;;;;12.73;8.45;;;16.70;69.20;;;;;;5112730;28;20028;-52
2023/05/20 10:58:18;;;;;;;13.63;7.43;;;16.50;71.00;;;;;;5090785;28;20032;-52
2023/05/20 11:00:45;;;;;;;11.35;7.63;;;16.90;70.70;;;;;;5112000;28;20023;-52
2023/05/20 11:03:14;;;;;;;12.93;8.60;;;17.10;68.50;;;;;;5090481;28;20020;-50
2023/05/20 11:05:40;;;;;;;9.98;7.20;;;17.30;66.90;;;;;;5095024;28;20096;-54
2023/05/20 11:08:08;;;;;;;12.07;7.72;;;17.60;66.10;;;;;;5079363;28;20025;-51
2023/05/20 11:10:36;;;;;;;13.20;7.75;;;17.70;65.50;;;;;;5095690;28;20031;-53
2023/05/20 11:13:03;;;;;;;13.05;8.15;;;17.70;65.10;;;;;;5073563;28;20036;-50
2023/05/20 11:15:32;;;;;;;13.40;7.75;;;17.50;65.10;;;;;;5107000;28;20023;-50
2023/05/20 11:18:02;;;;;;;11.77;8.23;;;17.60;64.80;;;;;;5080755;28;20020;-49
2023/05/20 11:20:33;;;;;;;13.07;8.05;;;17.30;65.70;;;;;;5082631;28;20108;-53
2023/05/20 11:23:01;;;;;;;14.88;9.07;;;17.00;67.40;;;;;;5079563;28;20088;-49
2023/05/20 11:25:27;;;;;;;13.43;8.18;;;16.90;68.20;;;;;;5079928;28;20028;-48
2023/05/20 11:27:53;;;;;;;12.52;8.20;;;16.80;70.10;;;;;;5082721;28;20684;-47
2023/05/20 11:30:19;;;;;;;13.55;7.95;;;16.80;70.60;;;;;;5082709;28;20039;-48
2023/05/20 11:33:00;;;;;;;10.85;7.22;;;16.80;70.50;;;;;;5079977;28;20031;-49
2023/05/20 11:35:29;;;;;;;14.50;9.02;;;17.20;69.70;;;;;;5081115;28;20033;-49
2023/05/20 11:38:05;;;;;;;15.75;9.13;;;17.40;66.40;;;;;;5082708;28;20036;-53
2023/05/20 11:40:31;;;;;;;;;;;17.60;65.00;;;;;;5079749;28;20028;-54
2023/05/20 11:43:00;;;;;;;12.30;7.72;;;17.80;64.50;;;;;;5079834;28;20307;-49
2023/05/20 11:45:27;;;;;;;11.07;7.70;;;17.90;63.10;;;;;;5081141;28;20056;-52
2023/05/20 11:48:03;;;;;;;10.73;7.70;;;18.00;62.80;;;;;;5081048;28;20592;-52
2023/05/20 11:50:38;;;;;;;16.02;8.68;;;17.90;63.50;;;;;;5085316;28;20479;-47
2023/05/20 11:53:05;;;;;;;12.32;8.02;;;17.80;64.00;;;;;;5078122;28;20051;-47
2023/05/20 11:55:32;;;;;;;13.30;8.48;;;17.70;64.60;;;;;;5084208;28;20050;-50
2023/05/20 11:58:00;;;;;;;12.45;8.30;;;17.50;65.40;;;;;;5087151;28;20028;-47
2023/05/20 12:00:28;;;;;;;11.32;7.90;;;17.40;65.60;;;;;;5091253;28;20055;-50
2023/05/20 12:02:54;;;;;;;12.05;8.25;;;17.60;65.40;;;;;;5106316;28;20032;-51
2023/05/20 12:05:20;;;;;;;13.88;8.20;;;17.60;64.90;;;;;;5099253;28;20032;-50
2023/05/20 12:07:45;;;;;;;10.50;7.53;;;17.40;65.90;;;;;;5087860;28;20085;-54
2023/05/20 12:10:12;;;;;;;12.73;8.15;;;17.40;66.70;;;;;;5093197;28;20024;-54
2023/05/20 12:12:38;;;;;;;8.90;7.25;;;17.60;65.70;;;;;;5071972;28;20016;-54
2023/05/20 12:15:04;;;;;;;13.15;7.88;;;17.70;65.80;;;;;;5101810;28;20024;-55
2023/05/20 12:17:42;;;;;;;14.93;9.00;;;17.90;64.60;;;;;;5088367;28;20502;-53
2023/05/20 12:20:10;;;;;;;12.48;8.25;;;17.80;65.00;;;;;;5077156;28;20088;-54
2023/05/20 12:22:35;;;;;;;10.70;7.93;;;17.70;64.60;;;;;;5090575;28;20032;-51
2023/05/20 12:25:01;;;;;;;12.05;8.25;;;17.60;65.00;;;;;;5081675;28;20055;-53
2023/05/20 12:27:27;;;;;;;10.95;7.53;;;17.70;64.60;;;;;;5075630;28;20040;-52
2023/05/20 12:29:52;;;;;;;9.85;7.88;;;17.90;64.20;;;;;;5078285;28;20392;-53
2023/05/20 12:32:19;;;;;;;10.00;7.53;;;17.70;64.20;;;;;;5078467;28;20023;-51
2023/05/20 12:34:45;;;;;;;9.98;7.47;;;17.80;64.30;;;;;;5081900;28;20020;-51
2023/05/20 12:37:11;;;;;;;11.98;8.63;;;17.70;64.40;;;;;;5079716;28;20025;-52
2023/05/20 12:39:36;;;;;;;13.30;8.05;;;17.50;65.40;;;;;;5079669;28;20017;-51
2023/05/20 12:42:02;;;;;;;10.93;7.65;;;17.40;66.60;;;;;;5078731;28;20017;-52
2023/05/20 12:44:30;;;;;;;12.82;7.30;;;17.40;66.60;;;;;;5084353;28;20027;-52